Terminal Aerodrome Forecast
Issued by NWS Grand Rapids, MI

Home | Current Version | Previous Version | Text Only | Print | Product List | Glossary On
Versions: 1 2 3 4 5 6 7 8 9 10 11 12 13 14 15 16 17 18 19 20 21 22
000
FTUS43 KGRR 222300
TAFGRR
TAF
KGRR 222332Z 2300/2324 09010G15KT 5SM -RA BR OVC035
      TEMPO 2300/2303 4SM -RA BR OVC025
     FM230300 11010KT 3SM -RA BR OVC025
     FM230600 11012KT 2SM -RA BR OVC007
     FM231000 13010KT 1 1/2SM -RA BR OVC004
     FM231800 18006KT 4SM BR VCSH OVC007=

USA.gov is the U.S. government's official web portal to all federal, state and local government web resources and services.